createdAt,value
2018-11-25T00:01:21.931Z,23.20
2018-11-25T00:03:49.214Z,20.20
2018-11-25T00:06:16.487Z,17.45
2018-11-25T00:08:43.747Z,18.77
2018-11-25T00:11:11.011Z,19.65
2018-11-25T00:13:38.257Z,21.52
2018-11-25T00:16:05.570Z,24.32
2018-11-25T00:18:32.850Z,24.57
2018-11-25T00:21:00.083Z,22.95
2018-11-25T00:23:27.303Z,20.30
2018-11-25T00:25:55.194Z,32.28
2018-11-25T00:28:22.607Z,17.75
2018-11-25T00:30:49.864Z,22.20
2018-11-25T00:33:17.165Z,24.85
2018-11-25T00:35:48.831Z,20.85
2018-11-25T00:38:16.980Z,23.05
2018-11-25T00:40:44.342Z,25.02
2018-11-25T00:43:11.571Z,21.68
2018-11-25T00:45:38.850Z,25.62
2018-11-25T00:48:06.128Z,24.12
2018-11-25T00:50:33.404Z,21.02
2018-11-25T00:53:00.606Z,23.70
2018-11-25T00:55:27.911Z,31.97
2018-11-25T00:57:55.812Z,22.32
2018-11-25T01:00:23.116Z,21.15
2018-11-25T01:02:50.494Z,23.18
2018-11-25T01:05:17.793Z,24.50
2018-11-25T01:07:45.071Z,18.12
2018-11-25T01:10:13.314Z,20.70
2018-11-25T01:12:46.900Z,19.00
2018-11-25T01:15:19.691Z,23.27
2018-11-25T01:17:47.020Z,21.77
2018-11-25T01:20:20.250Z,23.57
2018-11-25T01:22:47.470Z,21.95
2018-11-25T01:25:14.751Z,24.87
2018-11-25T01:27:42.049Z,22.13
2018-11-25T01:30:10.561Z,25.20
2018-11-25T01:32:37.793Z,26.95
2018-11-25T01:35:05.970Z,25.17
2018-11-25T01:37:33.220Z,30.37
2018-11-25T01:40:00.556Z,24.60
2018-11-25T01:42:27.788Z,24.25
2018-11-25T01:44:55.046Z,19.90
2018-11-25T01:47:22.374Z,23.07
2018-11-25T01:49:49.659Z,29.92
2018-11-25T01:52:16.926Z,24.43
2018-11-25T01:54:44.197Z,29.87
2018-11-25T01:57:11.486Z,28.65
2018-11-25T01:59:39.223Z,28.20
2018-11-25T02:02:06.482Z,29.57
2018-11-25T02:04:33.709Z,22.25
2018-11-25T02:07:00.971Z,31.77
2018-11-25T02:09:28.178Z,26.65
2018-11-25T02:11:55.375Z,26.02
2018-11-25T02:14:22.620Z,27.90
2018-11-25T02:16:49.858Z,31.17
2018-11-25T02:19:18.396Z,26.80
2018-11-25T02:21:45.844Z,25.70
2018-11-25T02:24:13.020Z,28.83
2018-11-25T02:26:40.253Z,28.47
2018-11-25T02:29:07.497Z,24.63
2018-11-25T02:31:34.718Z,29.95
2018-11-25T02:34:01.972Z,28.90
2018-11-25T02:36:29.194Z,30.80
2018-11-25T02:38:56.418Z,25.05
2018-11-25T02:41:23.944Z,27.35
2018-11-25T02:43:51.233Z,28.60
2018-11-25T02:46:18.597Z,27.80
2018-11-25T02:48:45.858Z,28.32
2018-11-25T02:51:13.129Z,28.35
2018-11-25T02:53:40.376Z,28.40
2018-11-25T02:56:07.629Z,28.80
2018-11-25T02:58:34.824Z,24.87
2018-11-25T03:01:06.733Z,22.90
2018-11-25T03:03:34.315Z,23.38
2018-11-25T03:06:01.608Z,20.23
2018-11-25T03:08:28.868Z,28.83
2018-11-25T03:10:56.143Z,33.45
2018-11-25T03:13:23.351Z,27.60
2018-11-25T03:15:50.724Z,29.12
2018-11-25T03:18:17.936Z,29.87
2018-11-25T03:20:45.164Z,27.87
2018-11-25T03:23:12.504Z,26.48
2018-11-25T03:25:39.792Z,27.98
2018-11-25T03:28:07.036Z,26.52
2018-11-25T03:30:34.339Z,25.60
2018-11-25T03:33:01.733Z,28.67
2018-11-25T03:35:29.219Z,28.07
2018-11-25T03:37:56.461Z,28.52
2018-11-25T03:40:23.757Z,30.72
2018-11-25T03:42:51.061Z,32.73
2018-11-25T03:45:20.324Z,35.52
2018-11-25T03:47:47.602Z,33.67
2018-11-25T03:50:15.470Z,34.00
2018-11-25T03:52:42.984Z,36.63
2018-11-25T03:55:11.058Z,34.92
2018-11-25T03:57:38.460Z,36.50
2018-11-25T04:00:15.332Z,35.50
2018-11-25T04:02:42.593Z,39.70
2018-11-25T04:05:10.910Z,35.25
2018-11-25T04:07:38.150Z,32.83
2018-11-25T04:10:08.381Z,37.03
2018-11-25T04:12:35.750Z,31.02
2018-11-25T04:15:03.337Z,32.63
2018-11-25T04:17:30.740Z,32.48
2018-11-25T04:19:58.022Z,32.17
2018-11-25T04:22:26.189Z,32.03
2018-11-25T04:24:53.481Z,28.75
2018-11-25T04:27:20.841Z,27.67
2018-11-25T04:29:48.101Z,26.45
2018-11-25T04:32:15.383Z,28.70
2018-11-25T04:34:44.258Z,31.93
2018-11-25T04:37:11.565Z,26.15
2018-11-25T04:39:38.861Z,29.20
2018-11-25T04:42:06.191Z,22.35
2018-11-25T04:44:33.449Z,31.23
2018-11-25T04:47:00.664Z,31.15
2018-11-25T04:49:27.867Z,26.70
2018-11-25T04:51:55.135Z,26.85
2018-11-25T04:54:22.386Z,31.15
2018-11-25T04:56:49.715Z,29.45
2018-11-25T04:59:16.987Z,24.95
2018-11-25T05:01:44.277Z,26.37
2018-11-25T05:04:11.616Z,26.97
2018-11-25T05:06:38.924Z,27.20
2018-11-25T05:09:08.061Z,23.50
2018-11-25T05:11:35.730Z,28.67
2018-11-25T05:14:06.043Z,30.15
2018-11-25T05:16:33.668Z,32.13
2018-11-25T05:19:02.075Z,34.67
2018-11-25T05:21:29.352Z,34.67
2018-11-25T05:23:57.706Z,30.25
2018-11-25T05:26:29.961Z,31.87
2018-11-25T05:28:57.188Z,34.00
2018-11-25T05:31:24.777Z,28.75
2018-11-25T05:33:52.243Z,28.55
2018-11-25T05:36:19.516Z,30.62
2018-11-25T05:38:46.767Z,32.73
2018-11-25T05:41:13.983Z,30.65
2018-11-25T05:43:41.193Z,33.92
2018-11-25T05:46:08.419Z,25.52
2018-11-25T05:48:35.828Z,28.50
2018-11-25T05:51:03.106Z,26.37
2018-11-25T05:53:30.443Z,28.77
2018-11-25T05:55:57.729Z,28.45
2018-11-25T05:58:24.941Z,32.38
2018-11-25T06:00:52.212Z,28.10
2018-11-25T06:03:19.390Z,29.45
2018-11-25T06:05:46.594Z,24.47
2018-11-25T06:08:13.835Z,29.75
2018-11-25T06:10:42.459Z,33.30
2018-11-25T06:13:08.322Z,29.30
2018-11-25T06:15:35.609Z,46.95
2018-11-25T06:18:02.872Z,37.28
2018-11-25T06:20:30.129Z,31.35
2018-11-25T06:22:57.368Z,31.12
2018-11-25T06:25:24.596Z,26.85
2018-11-25T06:27:51.803Z,26.52
2018-11-25T06:30:19.774Z,29.67
2018-11-25T06:32:47.022Z,32.55
2018-11-25T06:35:15.095Z,29.27
2018-11-25T06:37:42.377Z,29.63
2018-11-25T06:40:12.953Z,30.85
2018-11-25T06:42:40.179Z,29.25
2018-11-25T06:45:12.172Z,28.40
2018-11-25T06:47:39.400Z,28.67
2018-11-25T06:50:10.703Z,35.28
2018-11-25T06:52:38.035Z,32.55
2018-11-25T06:55:06.410Z,34.05
2018-11-25T06:57:33.685Z,33.40
2018-11-25T07:00:00.943Z,33.08
2018-11-25T07:02:28.185Z,27.48
2018-11-25T07:05:01.758Z,30.92
2018-11-25T07:07:28.976Z,43.60
2018-11-25T07:09:56.316Z,43.00
2018-11-25T07:12:23.552Z,43.30
2018-11-25T07:14:51.090Z,39.58
2018-11-25T07:17:18.303Z,43.68
2018-11-25T07:19:45.670Z,41.33
2018-11-25T07:22:13.083Z,37.20
2018-11-25T07:24:40.506Z,36.68
2018-11-25T07:27:09.700Z,32.00
2018-11-25T07:29:37.029Z,32.48
2018-11-25T07:32:04.431Z,29.45
2018-11-25T07:34:31.853Z,32.23
2018-11-25T07:36:59.143Z,38.17
2018-11-25T07:39:26.392Z,30.92
2018-11-25T07:41:53.568Z,30.88
2018-11-25T07:44:20.816Z,30.52
2018-11-25T07:46:48.092Z,28.62
2018-11-25T07:49:15.381Z,29.23
2018-11-25T07:51:42.687Z,28.85
2018-11-25T07:54:10.134Z,30.48
2018-11-25T07:56:37.394Z,26.60
2018-11-25T07:59:05.077Z,24.80
2018-11-25T08:01:32.357Z,30.02
2018-11-25T08:04:02.552Z,70.50
2018-11-25T08:06:29.842Z,28.70
2018-11-25T08:08:57.036Z,27.07
2018-11-25T08:11:24.314Z,24.80
2018-11-25T08:13:54.948Z,27.30
2018-11-25T08:16:22.212Z,24.90
2018-11-25T08:18:49.555Z,24.97
2018-11-25T08:21:19.214Z,22.43
2018-11-25T08:23:46.487Z,24.50
2018-11-25T08:26:14.594Z,27.17
2018-11-25T08:28:42.660Z,22.93
2018-11-25T08:31:10.037Z,25.13
2018-11-25T08:33:37.269Z,23.50
2018-11-25T08:36:07.428Z,25.77
2018-11-25T08:38:34.698Z,22.00
2018-11-25T08:41:01.977Z,27.67
2018-11-25T08:43:33.314Z,20.60
2018-11-25T08:46:00.590Z,29.20
2018-11-25T08:48:27.837Z,26.43
2018-11-25T08:50:55.043Z,30.80
2018-11-25T08:53:22.294Z,30.50
2018-11-25T08:55:51.667Z,30.40
2018-11-25T08:58:22.300Z,30.70
2018-11-25T09:00:57.876Z,28.60
2018-11-25T09:03:32.202Z,28.47
2018-11-25T09:05:59.496Z,29.97
2018-11-25T09:08:27.831Z,32.83
2018-11-25T09:10:55.008Z,32.97
2018-11-25T09:13:22.261Z,32.13
2018-11-25T09:15:49.506Z,29.53
2018-11-25T09:18:16.777Z,31.47
2018-11-25T09:20:43.959Z,24.93
2018-11-25T09:23:11.373Z,23.70
2018-11-25T09:25:38.676Z,32.60
2018-11-25T09:28:05.963Z,30.77
2018-11-25T09:30:33.476Z,30.37
2018-11-25T09:33:00.698Z,27.17
2018-11-25T09:35:28.534Z,30.20
2018-11-25T09:37:55.733Z,29.87
2018-11-25T09:40:24.103Z,32.70
2018-11-25T09:42:51.383Z,33.00
2018-11-25T09:45:19.235Z,34.53
2018-11-25T09:47:46.668Z,33.77
2018-11-25T09:50:16.737Z,35.27
2018-11-25T09:52:44.045Z,39.60
2018-11-25T09:55:13.172Z,35.53
2018-11-25T09:57:41.372Z,34.13
2018-11-25T10:00:14.356Z,29.70
2018-11-25T10:02:50.220Z,27.53
2018-11-25T10:05:17.744Z,26.20
2018-11-25T10:07:45.042Z,28.07
2018-11-25T10:10:14.108Z,31.00
2018-11-25T10:12:41.260Z,23.00
2018-11-25T10:15:10.571Z,22.63
2018-11-25T10:17:37.848Z,23.60
2018-11-25T10:20:17.389Z,24.67
2018-11-25T10:22:44.786Z,24.00
2018-11-25T10:25:13.772Z,23.20
2018-11-25T10:27:41.182Z,22.47
2018-11-25T10:30:26.135Z,19.30
2018-11-25T10:32:56.348Z,17.77
2018-11-25T10:35:23.632Z,19.20
2018-11-25T10:37:50.963Z,18.50
2018-11-25T10:40:20.124Z,14.80
2018-11-25T10:42:47.485Z,14.30
2018-11-25T10:45:17.550Z,14.47
2018-11-25T10:47:45.117Z,14.63
2018-11-25T10:50:14.998Z,11.63
2018-11-25T10:52:42.263Z,11.33
2018-11-25T10:55:11.362Z,13.53
2018-11-25T10:57:38.993Z,12.33
2018-11-25T11:00:15.396Z,9.03
2018-11-25T11:02:44.099Z,15.70
2018-11-25T11:05:15.899Z,13.07
2018-11-25T11:07:43.760Z,14.83
2018-11-25T11:10:11.228Z,14.33
2018-11-25T11:12:38.467Z,9.77
2018-11-25T11:15:08.131Z,10.40
2018-11-25T11:17:35.348Z,12.30
2018-11-25T11:20:02.847Z,11.10
2018-11-25T11:22:30.175Z,13.00
2018-11-25T11:24:57.416Z,9.93
2018-11-25T11:27:24.643Z,11.60
2018-11-25T11:29:51.839Z,13.40
2018-11-25T11:32:19.108Z,11.73
2018-11-25T11:34:48.859Z,11.60
2018-11-25T11:37:16.187Z,9.03
2018-11-25T11:39:43.421Z,10.37
2018-11-25T11:42:10.955Z,9.80
2018-11-25T11:44:38.248Z,12.93
2018-11-25T11:47:05.633Z,11.40
2018-11-25T11:49:32.839Z,10.67
2018-11-25T11:52:00.044Z,9.27
2018-11-25T11:54:27.269Z,8.70
2018-11-25T11:56:54.539Z,8.87
2018-11-25T11:59:21.742Z,10.60
2018-11-25T12:01:49.134Z,10.80
2018-11-25T12:04:16.442Z,11.13
2018-11-25T12:06:43.694Z,12.80
2018-11-25T12:09:11.051Z,12.80
2018-11-25T12:11:38.342Z,12.30
2018-11-25T12:14:05.599Z,13.50
2018-11-25T12:16:32.834Z,12.60
2018-11-25T12:19:00.141Z,15.77
2018-11-25T12:21:27.393Z,12.20
2018-11-25T12:23:54.713Z,14.03
2018-11-25T12:26:21.888Z,16.20
2018-11-25T12:28:49.158Z,11.03
2018-11-25T12:31:16.360Z,11.53
2018-11-25T12:33:43.665Z,13.47
2018-11-25T12:36:10.966Z,15.07
2018-11-25T12:38:38.178Z,12.20
2018-11-25T12:41:05.560Z,12.13
2018-11-25T12:43:32.802Z,12.40
2018-11-25T12:46:00.021Z,11.10
2018-11-25T12:48:27.262Z,17.17
2018-11-25T12:50:54.504Z,16.20
2018-11-25T12:53:21.692Z,14.17
2018-11-25T12:55:50.151Z,13.97
2018-11-25T12:58:17.357Z,16.17
2018-11-25T13:00:46.433Z,28.53
2018-11-25T13:03:13.808Z,31.83
2018-11-25T13:05:45.935Z,16.27
2018-11-25T13:08:09.754Z,14.43
2018-11-25T13:10:37.144Z,13.50
2018-11-25T13:13:10.042Z,16.43
2018-11-25T13:15:40.282Z,14.00
2018-11-25T13:18:10.907Z,14.90
2018-11-25T13:20:38.181Z,15.40
2018-11-25T13:23:07.146Z,17.60
2018-11-25T13:25:34.393Z,19.07
2018-11-25T13:28:01.620Z,16.00
2018-11-25T13:30:30.163Z,17.30
2018-11-25T13:32:58.562Z,14.57
2018-11-25T13:35:27.768Z,20.67
2018-11-25T13:37:54.479Z,14.70
2018-11-25T13:40:21.825Z,16.60
2018-11-25T13:42:49.026Z,13.17
2018-11-25T13:45:17.422Z,13.93
2018-11-25T13:47:45.709Z,17.10
2018-11-25T13:50:12.877Z,13.10
2018-11-25T13:52:40.172Z,11.13
2018-11-25T13:55:10.013Z,14.30
2018-11-25T13:57:37.266Z,11.67
2018-11-25T14:00:13.991Z,13.87
2018-11-25T14:02:41.247Z,12.57
2018-11-25T14:05:08.547Z,13.10
2018-11-25T14:07:35.824Z,10.93
2018-11-25T14:10:03.387Z,14.00
2018-11-25T14:12:30.931Z,11.60
2018-11-25T14:14:59.070Z,14.17
2018-11-25T14:17:26.616Z,10.63
2018-11-25T14:19:55.131Z,12.50
2018-11-25T14:22:22.422Z,13.17
2018-11-25T14:24:49.717Z,13.00
2018-11-25T14:27:17.023Z,11.77
2018-11-25T14:29:44.298Z,16.43
2018-11-25T14:32:11.566Z,17.00
2018-11-25T14:34:38.845Z,12.83
2018-11-25T14:37:06.092Z,14.33
2018-11-25T14:39:33.319Z,18.90
2018-11-25T14:42:00.603Z,13.30
2018-11-25T14:44:27.883Z,15.47
2018-11-25T14:46:55.238Z,12.40
2018-11-25T14:49:22.485Z,16.00
2018-11-25T14:51:49.728Z,14.43
2018-11-25T14:54:16.969Z,14.30
2018-11-25T14:56:44.379Z,13.87
2018-11-25T14:59:11.818Z,12.47
2018-11-25T15:01:39.111Z,14.00
2018-11-25T15:04:06.558Z,12.97
2018-11-25T15:06:33.915Z,15.90
2018-11-25T15:09:01.150Z,16.95
2018-11-25T15:11:28.910Z,12.90
2018-11-25T15:13:56.520Z,18.00
2018-11-25T15:16:25.564Z,13.57
2018-11-25T15:18:55.628Z,14.05
2018-11-25T15:21:25.412Z,16.47
2018-11-25T15:23:54.652Z,13.03
2018-11-25T15:26:22.110Z,12.47
2018-11-25T15:28:49.370Z,14.68
2018-11-25T15:31:16.596Z,13.35
2018-11-25T15:33:43.824Z,12.18
2018-11-25T15:36:11.094Z,16.52
2018-11-25T15:38:38.385Z,13.18
2018-11-25T15:41:06.046Z,14.68
2018-11-25T15:43:33.249Z,16.45
2018-11-25T15:46:00.564Z,14.58
2018-11-25T15:48:29.080Z,15.28
2018-11-25T15:50:58.535Z,14.33
2018-11-25T15:53:25.719Z,15.60
2018-11-25T15:55:54.730Z,15.72
2018-11-25T15:58:21.946Z,18.20
2018-11-25T16:00:49.222Z,16.10
2018-11-25T16:03:16.468Z,13.32
2018-11-25T16:05:45.531Z,14.00
2018-11-25T16:08:12.796Z,16.15
2018-11-25T16:10:40.069Z,16.52
2018-11-25T16:13:07.882Z,14.58
2018-11-25T16:15:35.219Z,18.67
2018-11-25T16:18:04.596Z,19.48
2018-11-25T16:20:32.701Z,21.85
2018-11-25T16:23:01.481Z,18.15
2018-11-25T16:25:41.936Z,20.32
2018-11-25T16:28:19.266Z,17.17
2018-11-25T16:30:46.537Z,17.98
2018-11-25T16:33:13.786Z,18.50
2018-11-25T16:35:41.046Z,16.27
2018-11-25T16:38:08.232Z,16.40
2018-11-25T16:40:35.585Z,16.02
2018-11-25T16:43:02.994Z,120.08
2018-11-25T16:45:30.224Z,30.23
2018-11-25T16:47:57.441Z,17.23
2018-11-25T16:50:25.417Z,13.98
2018-11-25T16:52:52.062Z,15.13
2018-11-25T16:55:19.300Z,16.65
2018-11-25T16:57:46.565Z,16.40
2018-11-25T17:00:15.931Z,16.00
2018-11-25T17:02:43.994Z,16.93
2018-11-25T17:05:19.517Z,20.05
2018-11-25T17:07:49.279Z,18.87
2018-11-25T17:10:16.568Z,18.60
2018-11-25T17:12:44.731Z,21.07
2018-11-25T17:15:16.288Z,20.68
2018-11-25T17:17:43.583Z,20.72
2018-11-25T17:20:10.835Z,21.57
2018-11-25T17:22:38.156Z,21.87
2018-11-25T17:25:07.464Z,24.37
2018-11-25T17:27:34.744Z,20.10
2018-11-25T17:30:02.143Z,22.77
2018-11-25T17:32:29.439Z,24.35
2018-11-25T17:34:56.733Z,23.15
2018-11-25T17:37:24.343Z,19.48
2018-11-25T17:39:51.661Z,19.87
2018-11-25T17:42:18.901Z,21.48
2018-11-25T17:44:46.132Z,24.12
2018-11-25T17:47:13.368Z,27.80
2018-11-25T17:49:40.602Z,25.70
2018-11-25T17:52:07.832Z,30.25
2018-11-25T17:54:35.169Z,23.77
2018-11-25T17:57:02.426Z,25.45
2018-11-25T17:59:29.705Z,22.67
2018-11-25T18:01:56.997Z,21.75
2018-11-25T18:04:24.247Z,19.10
2018-11-25T18:06:52.518Z,21.60
2018-11-25T18:09:19.965Z,24.57
2018-11-25T18:11:47.353Z,24.65
2018-11-25T18:14:14.608Z,24.85
2018-11-25T18:16:41.881Z,26.73
2018-11-25T18:19:18.521Z,18.02
2018-11-25T18:21:45.914Z,21.10
2018-11-25T18:24:13.102Z,26.52
2018-11-25T18:26:40.481Z,25.00
2018-11-25T18:29:07.792Z,22.70
2018-11-25T18:31:35.088Z,23.18
2018-11-25T18:34:02.529Z,22.20
2018-11-25T18:36:29.905Z,24.65
2018-11-25T18:38:59.185Z,23.98
2018-11-25T18:41:28.230Z,45.08
2018-11-25T18:43:56.078Z,36.63
2018-11-25T18:46:26.808Z,23.50
2018-11-25T18:48:54.119Z,26.90
2018-11-25T18:51:24.595Z,22.07
2018-11-25T18:53:51.792Z,22.42
2018-11-25T18:56:19.051Z,22.70
2018-11-25T18:58:46.293Z,28.87
2018-11-25T19:01:18.962Z,22.30
2018-11-25T19:03:46.719Z,30.60
2018-11-25T19:06:13.997Z,25.10
2018-11-25T19:08:41.306Z,22.73
2018-11-25T19:11:08.616Z,25.75
2018-11-25T19:13:35.934Z,28.45
2018-11-25T19:16:03.178Z,30.08
2018-11-25T19:18:30.369Z,28.40
2018-11-25T19:20:57.680Z,30.23
2018-11-25T19:23:24.874Z,31.50
2018-11-25T19:25:52.148Z,33.13
2018-11-25T19:28:19.418Z,31.02
2018-11-25T19:30:46.717Z,27.98
2018-11-25T19:33:14.004Z,33.18
2018-11-25T19:35:41.232Z,29.40
2018-11-25T19:38:09.050Z,29.92
2018-11-25T19:40:36.415Z,35.98
2018-11-25T19:43:04.017Z,28.32
2018-11-25T19:45:31.289Z,29.30
2018-11-25T19:47:58.544Z,33.48
2018-11-25T19:50:30.136Z,33.83
2018-11-25T19:52:57.491Z,29.92
2018-11-25T19:55:24.706Z,34.38
2018-11-25T19:57:52.199Z,31.77
2018-11-25T20:00:21.879Z,35.48
2018-11-25T20:02:49.394Z,27.00
2018-11-25T20:05:16.411Z,37.30
2018-11-25T20:07:43.970Z,29.72
2018-11-25T20:10:14.167Z,29.42
2018-11-25T20:12:43.045Z,33.28
2018-11-25T20:15:12.371Z,35.17
2018-11-25T20:17:39.624Z,23.67
2018-11-25T20:20:17.747Z,32.15
2018-11-25T20:22:45.238Z,27.77
2018-11-25T20:25:13.114Z,29.95
2018-11-25T20:27:43.570Z,25.90
2018-11-25T20:30:13.770Z,29.95
2018-11-25T20:32:46.542Z,29.70
2018-11-25T20:35:13.856Z,35.28
2018-11-25T20:37:46.648Z,28.80
2018-11-25T20:40:13.925Z,29.85
2018-11-25T20:42:41.555Z,26.42
2018-11-25T20:45:15.755Z,28.98
2018-11-25T20:47:49.183Z,31.50
2018-11-25T20:50:17.739Z,30.88
2018-11-25T20:52:50.794Z,36.90
2018-11-25T20:55:18.099Z,28.83
2018-11-25T20:57:45.387Z,28.75
2018-11-25T21:00:15.146Z,29.32
2018-11-25T21:02:42.207Z,25.52
2018-11-25T21:05:10.960Z,27.48
2018-11-25T21:07:38.309Z,28.50
2018-11-25T21:10:09.110Z,32.65
2018-11-25T21:12:36.319Z,31.93
2018-11-25T21:15:03.618Z,110.12
2018-11-25T21:17:30.905Z,48.42
2018-11-25T21:19:58.210Z,30.20
2018-11-25T21:22:25.490Z,29.67
2018-11-25T21:24:52.715Z,28.77
2018-11-25T21:27:20.102Z,29.65
2018-11-25T21:29:47.318Z,26.30
2018-11-25T21:32:14.512Z,25.97
2018-11-25T21:34:42.605Z,31.23
2018-11-25T21:37:09.905Z,25.00
2018-11-25T21:39:37.133Z,32.42
2018-11-25T21:42:04.651Z,31.37
2018-11-25T21:44:31.985Z,30.75
2018-11-25T21:47:03.517Z,38.20
2018-11-25T21:49:30.813Z,38.55
2018-11-25T21:51:58.059Z,28.00
2018-11-25T21:54:25.259Z,29.72
2018-11-25T21:56:52.927Z,36.75
2018-11-25T21:59:20.151Z,32.42
2018-11-25T22:01:47.402Z,27.67
2018-11-25T22:04:14.633Z,35.78
2018-11-25T22:06:41.895Z,25.70
2018-11-25T22:09:09.516Z,32.88
2018-11-25T22:11:36.987Z,25.08
2018-11-25T22:14:04.422Z,24.07
2018-11-25T22:16:31.686Z,32.65
2018-11-25T22:18:58.989Z,29.00
2018-11-25T22:21:26.274Z,37.28
2018-11-25T22:23:53.502Z,28.73
2018-11-25T22:26:20.709Z,30.45
2018-11-25T22:28:47.944Z,33.05
2018-11-25T22:31:15.229Z,32.65
2018-11-25T22:33:43.608Z,30.40
2018-11-25T22:36:10.832Z,31.57
2018-11-25T22:38:38.019Z,32.65
2018-11-25T22:41:05.386Z,31.33
2018-11-25T22:43:32.575Z,36.25
2018-11-25T22:45:59.913Z,41.05
2018-11-25T22:48:29.448Z,26.40
2018-11-25T22:50:57.294Z,34.55
2018-11-25T22:53:25.582Z,34.30
2018-11-25T22:55:52.946Z,32.83
2018-11-25T22:58:20.159Z,31.48
2018-11-25T23:00:49.374Z,30.23
2018-11-25T23:03:16.620Z,33.40
2018-11-25T23:05:55.412Z,30.80
2018-11-25T23:08:22.776Z,30.12
2018-11-25T23:10:50.033Z,30.40
2018-11-25T23:13:17.272Z,29.20
2018-11-25T23:15:44.493Z,33.28
2018-11-25T23:18:11.851Z,31.10
2018-11-25T23:20:39.125Z,32.25
2018-11-25T23:23:06.724Z,27.82
2018-11-25T23:25:33.944Z,27.10
2018-11-25T23:28:02.226Z,27.80
2018-11-25T23:30:29.541Z,30.27
2018-11-25T23:32:58.448Z,29.35
2018-11-25T23:35:27.076Z,33.63
2018-11-25T23:37:59.430Z,32.33
2018-11-25T23:40:29.661Z,32.48
2018-11-25T23:42:56.934Z,30.92
2018-11-25T23:45:27.730Z,30.20
2018-11-25T23:47:54.976Z,28.55
2018-11-25T23:50:22.603Z,36.33
2018-11-25T23:52:49.862Z,30.12
2018-11-25T23:55:17.103Z,28.67
2018-11-25T23:57:44.367Z,36.35
